sensor_id;sensor_type;location;lat;lon;timestamp;temperature;humidity
51661;DHT22;37741;49.748;8.490;2023-05-07T00:02:24;19.80;61.60
51661;DHT22;37741;49.748;8.490;2023-05-07T00:04:50;19.90;61.60
51661;DHT22;37741;49.748;8.490;2023-05-07T00:07:17;19.80;61.60
51661;DHT22;37741;49.748;8.490;2023-05-07T00:09:43;19.80;61.70
51661;DHT22;37741;49.748;8.490;2023-05-07T00:12:09;19.80;61.80
51661;DHT22;37741;49.748;8.490;2023-05-07T00:14:35;19.80;61.90
51661;DHT22;37741;49.748;8.490;2023-05-07T00:17:00;19.70;61.90
51661;DHT22;37741;49.748;8.490;2023-05-07T00:19:26;19.70;61.90
51661;DHT22;37741;49.748;8.490;2023-05-07T00:21:52;19.70;62.10
51661;DHT22;37741;49.748;8.490;2023-05-07T00:24:19;19.60;62.10
51661;DHT22;37741;49.748;8.490;2023-05-07T00:26:44;19.60;62.20
51661;DHT22;37741;49.748;8.490;2023-05-07T00:29:10;19.60;62.30
51661;DHT22;37741;49.748;8.490;2023-05-07T00:31:36;19.60;62.40
51661;DHT22;37741;49.748;8.490;2023-05-07T00:34:01;19.50;62.40
51661;DHT22;37741;49.748;8.490;2023-05-07T00:36:27;19.50;62.50
51661;DHT22;37741;49.748;8.490;2023-05-07T00:38:54;19.50;62.60
51661;DHT22;37741;49.748;8.490;2023-05-07T00:41:20;19.50;62.60
51661;DHT22;37741;49.748;8.490;2023-05-07T00:43:46;19.50;62.80
51661;DHT22;37741;49.748;8.490;2023-05-07T00:46:13;19.40;62.80
51661;DHT22;37741;49.748;8.490;2023-05-07T00:48:39;19.40;63.00
51661;DHT22;37741;49.748;8.490;2023-05-07T00:51:05;19.40;63.00
51661;DHT22;37741;49.748;8.490;2023-05-07T00:53:30;19.40;63.00
51661;DHT22;37741;49.748;8.490;2023-05-07T00:55:56;19.40;63.10
51661;DHT22;37741;49.748;8.490;2023-05-07T00:58:22;19.40;63.20
51661;DHT22;37741;49.748;8.490;2023-05-07T01:00:48;19.30;63.20
51661;DHT22;37741;49.748;8.490;2023-05-07T01:03:14;19.30;63.30
51661;DHT22;37741;49.748;8.490;2023-05-07T01:05:41;19.30;63.40
51661;DHT22;37741;49.748;8.490;2023-05-07T01:08:07;19.30;63.30
51661;DHT22;37741;49.748;8.490;2023-05-07T01:10:33;19.20;63.40
51661;DHT22;37741;49.748;8.490;2023-05-07T01:12:59;19.20;64.00
51661;DHT22;37741;49.748;8.490;2023-05-07T01:15:25;19.20;63.30
51661;DHT22;37741;49.748;8.490;2023-05-07T01:17:51;19.10;63.50
51661;DHT22;37741;49.748;8.490;2023-05-07T01:20:18;19.10;63.60
51661;DHT22;37741;49.748;8.490;2023-05-07T01:22:44;19.10;63.60
51661;DHT22;37741;49.748;8.490;2023-05-07T01:25:10;19.10;63.60
51661;DHT22;37741;49.748;8.490;2023-05-07T01:27:36;19.10;63.60
51661;DHT22;37741;49.748;8.490;2023-05-07T01:30:05;19.10;63.60
51661;DHT22;37741;49.748;8.490;2023-05-07T01:32:42;19.00;63.70
51661;DHT22;37741;49.748;8.490;2023-05-07T01:35:11;19.00;63.70
51661;DHT22;37741;49.748;8.490;2023-05-07T01:37:39;19.00;63.90
51661;DHT22;37741;49.748;8.490;2023-05-07T01:40:05;19.00;63.90
51661;DHT22;37741;49.748;8.490;2023-05-07T01:42:32;18.90;64.00
51661;DHT22;37741;49.748;8.490;2023-05-07T01:44:58;18.90;64.30
51661;DHT22;37741;49.748;8.490;2023-05-07T01:47:24;18.90;64.10
51661;DHT22;37741;49.748;8.490;2023-05-07T01:49:51;18.80;64.20
51661;DHT22;37741;49.748;8.490;2023-05-07T01:52:17;18.80;64.20
51661;DHT22;37741;49.748;8.490;2023-05-07T01:54:42;18.80;64.40
51661;DHT22;37741;49.748;8.490;2023-05-07T01:57:08;18.80;64.50
51661;DHT22;37741;49.748;8.490;2023-05-07T01:59:34;18.70;64.50
51661;DHT22;37741;49.748;8.490;2023-05-07T02:01:59;18.70;64.50
51661;DHT22;37741;49.748;8.490;2023-05-07T02:04:26;18.70;64.60
51661;DHT22;37741;49.748;8.490;2023-05-07T02:06:51;18.70;65.30
51661;DHT22;37741;49.748;8.490;2023-05-07T02:09:18;18.70;64.80
51661;DHT22;37741;49.748;8.490;2023-05-07T02:11:44;18.70;64.90
51661;DHT22;37741;49.748;8.490;2023-05-07T02:14:10;18.60;64.80
51661;DHT22;37741;49.748;8.490;2023-05-07T02:16:36;18.60;64.90
51661;DHT22;37741;49.748;8.490;2023-05-07T02:19:01;18.60;65.00
51661;DHT22;37741;49.748;8.490;2023-05-07T02:21:27;18.50;65.00
51661;DHT22;37741;49.748;8.490;2023-05-07T02:23:53;18.50;65.00
51661;DHT22;37741;49.748;8.490;2023-05-07T02:26:18;18.50;65.10
51661;DHT22;37741;49.748;8.490;2023-05-07T02:28:44;18.50;65.20
51661;DHT22;37741;49.748;8.490;2023-05-07T02:31:09;18.50;65.40
51661;DHT22;37741;49.748;8.490;2023-05-07T02:33:35;18.40;65.40
51661;DHT22;37741;49.748;8.490;2023-05-07T02:36:08;18.40;65.50
51661;DHT22;37741;49.748;8.490;2023-05-07T02:38:34;18.40;65.60
51661;DHT22;37741;49.748;8.490;2023-05-07T02:41:00;18.30;65.60
51661;DHT22;37741;49.748;8.490;2023-05-07T02:43:26;18.30;66.10
51661;DHT22;37741;49.748;8.490;2023-05-07T02:46:05;18.30;66.00
51661;DHT22;37741;49.748;8.490;2023-05-07T02:48:31;18.30;66.40
51661;DHT22;37741;49.748;8.490;2023-05-07T02:50:57;18.20;66.20
51661;DHT22;37741;49.748;8.490;2023-05-07T02:53:23;18.20;66.20
51661;DHT22;37741;49.748;8.490;2023-05-07T02:55:58;18.10;66.70
51661;DHT22;37741;49.748;8.490;2023-05-07T02:58:24;18.10;66.40
51661;DHT22;37741;49.748;8.490;2023-05-07T03:00:50;18.10;66.80
51661;DHT22;37741;49.748;8.490;2023-05-07T03:03:15;18.10;66.80
51661;DHT22;37741;49.748;8.490;2023-05-07T03:05:41;18.10;66.70
51661;DHT22;37741;49.748;8.490;2023-05-07T03:08:08;18.00;66.80
51661;DHT22;37741;49.748;8.490;2023-05-07T03:10:33;18.00;66.80
51661;DHT22;37741;49.748;8.490;2023-05-07T03:12:59;18.00;66.80
51661;DHT22;37741;49.748;8.490;2023-05-07T03:15:25;18.00;66.90
51661;DHT22;37741;49.748;8.490;2023-05-07T03:17:50;17.90;67.00
51661;DHT22;37741;49.748;8.490;2023-05-07T03:20:16;17.90;67.00
51661;DHT22;37741;49.748;8.490;2023-05-07T03:22:41;17.90;67.40
51661;DHT22;37741;49.748;8.490;2023-05-07T03:25:08;17.90;67.20
51661;DHT22;37741;49.748;8.490;2023-05-07T03:27:33;17.90;67.20
51661;DHT22;37741;49.748;8.490;2023-05-07T03:29:59;17.80;67.40
51661;DHT22;37741;49.748;8.490;2023-05-07T03:32:25;17.80;67.30
51661;DHT22;37741;49.748;8.490;2023-05-07T03:34:51;17.80;67.40
51661;DHT22;37741;49.748;8.490;2023-05-07T03:37:17;17.80;67.40
51661;DHT22;37741;49.748;8.490;2023-05-07T03:39:42;17.80;67.40
51661;DHT22;37741;49.748;8.490;2023-05-07T03:42:08;17.80;67.50
51661;DHT22;37741;49.748;8.490;2023-05-07T03:44:34;17.70;67.50
51661;DHT22;37741;49.748;8.490;2023-05-07T03:47:01;17.70;67.60
51661;DHT22;37741;49.748;8.490;2023-05-07T03:49:27;17.70;67.70
51661;DHT22;37741;49.748;8.490;2023-05-07T03:51:52;17.70;67.70
51661;DHT22;37741;49.748;8.490;2023-05-07T03:54:18;17.60;67.70
51661;DHT22;37741;49.748;8.490;2023-05-07T03:56:44;17.60;67.70
51661;DHT22;37741;49.748;8.490;2023-05-07T03:59:09;17.60;67.70
51661;DHT22;37741;49.748;8.490;2023-05-07T04:01:35;17.60;67.70
51661;DHT22;37741;49.748;8.490;2023-05-07T04:04:01;17.60;67.90
51661;DHT22;37741;49.748;8.490;2023-05-07T04:06:26;17.60;67.90
51661;DHT22;37741;49.748;8.490;2023-05-07T04:08:52;17.60;67.90
51661;DHT22;37741;49.748;8.490;2023-05-07T04:11:18;17.60;68.00
51661;DHT22;37741;49.748;8.490;2023-05-07T04:13:44;17.60;68.20
51661;DHT22;37741;49.748;8.490;2023-05-07T04:16:09;17.50;67.90
51661;DHT22;37741;49.748;8.490;2023-05-07T04:18:35;17.50;68.00
51661;DHT22;37741;49.748;8.490;2023-05-07T04:21:01;17.50;68.10
51661;DHT22;37741;49.748;8.490;2023-05-07T04:23:26;17.50;68.10
51661;DHT22;37741;49.748;8.490;2023-05-07T04:25:52;17.50;68.10
51661;DHT22;37741;49.748;8.490;2023-05-07T04:28:18;17.50;68.20
51661;DHT22;37741;49.748;8.490;2023-05-07T04:30:43;17.50;68.30
51661;DHT22;37741;49.748;8.490;2023-05-07T04:33:09;17.50;68.40
51661;DHT22;37741;49.748;8.490;2023-05-07T04:35:35;17.40;68.30
51661;DHT22;37741;49.748;8.490;2023-05-07T04:38:01;17.40;68.50
51661;DHT22;37741;49.748;8.490;2023-05-07T04:40:26;17.40;68.50
51661;DHT22;37741;49.748;8.490;2023-05-07T04:42:52;17.40;68.70
51661;DHT22;37741;49.748;8.490;2023-05-07T04:45:18;17.40;68.60
51661;DHT22;37741;49.748;8.490;2023-05-07T04:47:44;17.30;68.70
51661;DHT22;37741;49.748;8.490;2023-05-07T04:50:10;17.40;69.10
51661;DHT22;37741;49.748;8.490;2023-05-07T04:52:36;17.30;69.00
51661;DHT22;37741;49.748;8.490;2023-05-07T04:55:02;17.30;68.80
51661;DHT22;37741;49.748;8.490;2023-05-07T04:57:27;17.30;69.30
51661;DHT22;37741;49.748;8.490;2023-05-07T04:59:54;17.30;69.00
51661;DHT22;37741;49.748;8.490;2023-05-07T05:02:19;17.30;69.90
51661;DHT22;37741;49.748;8.490;2023-05-07T05:04:45;17.30;69.40
51661;DHT22;37741;49.748;8.490;2023-05-07T05:07:13;17.30;69.20
51661;DHT22;37741;49.748;8.490;2023-05-07T05:09:38;17.30;69.20
51661;DHT22;37741;49.748;8.490;2023-05-07T05:12:04;17.30;69.20
51661;DHT22;37741;49.748;8.490;2023-05-07T05:14:32;17.20;69.30
51661;DHT22;37741;49.748;8.490;2023-05-07T05:16:58;17.20;69.30
51661;DHT22;37741;49.748;8.490;2023-05-07T05:19:23;17.20;69.20
51661;DHT22;37741;49.748;8.490;2023-05-07T05:21:49;17.20;69.60
51661;DHT22;37741;49.748;8.490;2023-05-07T05:24:15;17.20;70.40
51661;DHT22;37741;49.748;8.490;2023-05-07T05:26:40;17.20;70.40
51661;DHT22;37741;49.748;8.490;2023-05-07T05:29:06;17.20;70.00
51661;DHT22;37741;49.748;8.490;2023-05-07T05:31:34;17.20;70.00
51661;DHT22;37741;49.748;8.490;2023-05-07T05:34:03;17.20;69.80
51661;DHT22;37741;49.748;8.490;2023-05-07T05:36:29;17.20;69.80
51661;DHT22;37741;49.748;8.490;2023-05-07T05:38:55;17.20;70.00
51661;DHT22;37741;49.748;8.490;2023-05-07T05:41:21;17.20;70.40
51661;DHT22;37741;49.748;8.490;2023-05-07T05:43:47;17.20;70.50
51661;DHT22;37741;49.748;8.490;2023-05-07T05:46:12;17.20;70.80
51661;DHT22;37741;49.748;8.490;2023-05-07T05:48:38;17.20;70.90
51661;DHT22;37741;49.748;8.490;2023-05-07T05:51:03;17.20;70.60
51661;DHT22;37741;49.748;8.490;2023-05-07T05:53:29;17.20;70.30
51661;DHT22;37741;49.748;8.490;2023-05-07T05:55:55;17.20;70.10
51661;DHT22;37741;49.748;8.490;2023-05-07T05:58:20;17.20;70.50
51661;DHT22;37741;49.748;8.490;2023-05-07T06:00:46;17.20;70.90
51661;DHT22;37741;49.748;8.490;2023-05-07T06:03:13;17.10;71.10
51661;DHT22;37741;49.748;8.490;2023-05-07T06:05:41;17.20;70.90
51661;DHT22;37741;49.748;8.490;2023-05-07T06:08:07;17.20;70.40
51661;DHT22;37741;49.748;8.490;2023-05-07T06:10:32;17.20;70.50
51661;DHT22;37741;49.748;8.490;2023-05-07T06:12:58;17.10;70.30
51661;DHT22;37741;49.748;8.490;2023-05-07T06:15:24;17.20;70.60
51661;DHT22;37741;49.748;8.490;2023-05-07T06:17:49;17.20;70.30
51661;DHT22;37741;49.748;8.490;2023-05-07T06:20:15;17.20;70.20
51661;DHT22;37741;49.748;8.490;2023-05-07T06:22:40;17.20;71.00
51661;DHT22;37741;49.748;8.490;2023-05-07T06:25:06;17.20;70.90
51661;DHT22;37741;49.748;8.490;2023-05-07T06:27:32;17.20;70.70
51661;DHT22;37741;49.748;8.490;2023-05-07T06:29:58;17.20;70.50
51661;DHT22;37741;49.748;8.490;2023-05-07T06:32:23;17.20;70.80
51661;DHT22;37741;49.748;8.490;2023-05-07T06:34:49;17.20;70.70
51661;DHT22;37741;49.748;8.490;2023-05-07T06:37:15;17.20;70.50
51661;DHT22;37741;49.748;8.490;2023-05-07T06:39:40;17.20;70.60
51661;DHT22;37741;49.748;8.490;2023-05-07T06:42:06;17.20;70.40
51661;DHT22;37741;49.748;8.490;2023-05-07T06:44:32;17.20;70.40
51661;DHT22;37741;49.748;8.490;2023-05-07T06:46:57;17.20;70.30
51661;DHT22;37741;49.748;8.490;2023-05-07T06:49:23;17.20;70.40
51661;DHT22;37741;49.748;8.490;2023-05-07T06:51:49;17.30;70.40
51661;DHT22;37741;49.748;8.490;2023-05-07T06:54:14;17.30;70.30
51661;DHT22;37741;49.748;8.490;2023-05-07T06:56:40;17.30;70.30
51661;DHT22;37741;49.748;8.490;2023-05-07T06:59:06;17.30;70.20
51661;DHT22;37741;49.748;8.490;2023-05-07T07:01:32;17.30;70.40
51661;DHT22;37741;49.748;8.490;2023-05-07T07:03:57;17.30;70.20
51661;DHT22;37741;49.748;8.490;2023-05-07T07:06:23;17.30;70.30
51661;DHT22;37741;49.748;8.490;2023-05-07T07:08:48;17.30;70.20
51661;DHT22;37741;49.748;8.490;2023-05-07T07:11:15;17.30;70.20
51661;DHT22;37741;49.748;8.490;2023-05-07T07:13:41;17.30;70.20
51661;DHT22;37741;49.748;8.490;2023-05-07T07:16:06;17.40;70.20
51661;DHT22;37741;49.748;8.490;2023-05-07T07:18:32;17.40;70.10
51661;DHT22;37741;49.748;8.490;2023-05-07T07:20:57;17.30;70.00
51661;DHT22;37741;49.748;8.490;2023-05-07T07:23:23;17.40;70.20
51661;DHT22;37741;49.748;8.490;2023-05-07T07:25:49;17.40;70.10
51661;DHT22;37741;49.748;8.490;2023-05-07T07:28:14;17.40;70.10
51661;DHT22;37741;49.748;8.490;2023-05-07T07:30:40;17.40;70.10
51661;DHT22;37741;49.748;8.490;2023-05-07T07:33:06;17.50;70.30
51661;DHT22;37741;49.748;8.490;2023-05-07T07:35:32;17.50;70.10
51661;DHT22;37741;49.748;8.490;2023-05-07T07:37:58;17.50;70.30
51661;DHT22;37741;49.748;8.490;2023-05-07T07:40:24;17.50;70.30
51661;DHT22;37741;49.748;8.490;2023-05-07T07:42:50;17.50;70.40
51661;DHT22;37741;49.748;8.490;2023-05-07T07:45:16;17.50;70.40
51661;DHT22;37741;49.748;8.490;2023-05-07T07:47:41;17.60;70.40
51661;DHT22;37741;49.748;8.490;2023-05-07T07:50:08;17.60;70.20
51661;DHT22;37741;49.748;8.490;2023-05-07T07:52:34;17.60;70.20
51661;DHT22;37741;49.748;8.490;2023-05-07T07:55:00;17.60;70.20
51661;DHT22;37741;49.748;8.490;2023-05-07T07:57:26;17.70;70.30
51661;DHT22;37741;49.748;8.490;2023-05-07T07:59:51;17.70;70.20
51661;DHT22;37741;49.748;8.490;2023-05-07T08:02:17;17.70;70.20
51661;DHT22;37741;49.748;8.490;2023-05-07T08:04:43;17.70;70.00
51661;DHT22;37741;49.748;8.490;2023-05-07T08:07:11;17.70;69.90
51661;DHT22;37741;49.748;8.490;2023-05-07T08:09:38;17.70;69.90
51661;DHT22;37741;49.748;8.490;2023-05-07T08:12:07;17.70;69.70
51661;DHT22;37741;49.748;8.490;2023-05-07T08:14:33;17.70;69.70
51661;DHT22;37741;49.748;8.490;2023-05-07T08:16:59;17.80;69.50
51661;DHT22;37741;49.748;8.490;2023-05-07T08:19:25;17.80;69.50
51661;DHT22;37741;49.748;8.490;2023-05-07T08:21:51;17.80;69.30
51661;DHT22;37741;49.748;8.490;2023-05-07T08:24:17;17.90;69.20
51661;DHT22;37741;49.748;8.490;2023-05-07T08:26:44;17.90;69.00
51661;DHT22;37741;49.748;8.490;2023-05-07T08:29:10;17.90;68.90
51661;DHT22;37741;49.748;8.490;2023-05-07T08:31:36;17.90;68.80
51661;DHT22;37741;49.748;8.490;2023-05-07T08:34:04;18.00;68.70
51661;DHT22;37741;49.748;8.490;2023-05-07T08:36:30;18.00;68.60
51661;DHT22;37741;49.748;8.490;2023-05-07T08:38:55;18.00;68.50
51661;DHT22;37741;49.748;8.490;2023-05-07T08:41:21;18.00;68.40
51661;DHT22;37741;49.748;8.490;2023-05-07T08:43:48;18.10;68.40
51661;DHT22;37741;49.748;8.490;2023-05-07T08:46:18;18.10;68.30
51661;DHT22;37741;49.748;8.490;2023-05-07T08:48:50;18.10;68.40
51661;DHT22;37741;49.748;8.490;2023-05-07T08:51:19;18.10;68.20
51661;DHT22;37741;49.748;8.490;2023-05-07T08:53:46;18.20;68.80
51661;DHT22;37741;49.748;8.490;2023-05-07T08:56:14;18.20;69.10
51661;DHT22;37741;49.748;8.490;2023-05-07T08:58:43;18.20;69.00
51661;DHT22;37741;49.748;8.490;2023-05-07T09:01:13;18.30;68.90
51661;DHT22;37741;49.748;8.490;2023-05-07T09:03:39;18.30;68.90
51661;DHT22;37741;49.748;8.490;2023-05-07T09:06:05;18.40;68.90
51661;DHT22;37741;49.748;8.490;2023-05-07T09:08:33;18.40;68.90
51661;DHT22;37741;49.748;8.490;2023-05-07T09:10:59;18.40;68.80
51661;DHT22;37741;49.748;8.490;2023-05-07T09:13:24;18.40;68.70
51661;DHT22;37741;49.748;8.490;2023-05-07T09:15:50;18.50;68.60
51661;DHT22;37741;49.748;8.490;2023-05-07T09:18:16;18.50;68.50
51661;DHT22;37741;49.748;8.490;2023-05-07T09:20:41;18.50;68.40
51661;DHT22;37741;49.748;8.490;2023-05-07T09:23:07;18.60;68.90
51661;DHT22;37741;49.748;8.490;2023-05-07T09:25:34;18.60;68.20
51661;DHT22;37741;49.748;8.490;2023-05-07T09:28:01;18.60;68.10
51661;DHT22;37741;49.748;8.490;2023-05-07T09:30:31;18.70;68.10
51661;DHT22;37741;49.748;8.490;2023-05-07T09:33:02;18.70;68.00
51661;DHT22;37741;49.748;8.490;2023-05-07T09:35:30;18.80;67.90
51661;DHT22;37741;49.748;8.490;2023-05-07T09:37:58;18.80;67.70
51661;DHT22;37741;49.748;8.490;2023-05-07T09:40:25;18.80;67.60
51661;DHT22;37741;49.748;8.490;2023-05-07T09:42:51;18.90;67.50
51661;DHT22;37741;49.748;8.490;2023-05-07T09:45:27;18.90;67.50
51661;DHT22;37741;49.748;8.490;2023-05-07T09:47:56;19.00;67.60
51661;DHT22;37741;49.748;8.490;2023-05-07T09:50:48;19.00;67.40
51661;DHT22;37741;49.748;8.490;2023-05-07T09:53:14;19.00;67.30
51661;DHT22;37741;49.748;8.490;2023-05-07T09:55:41;19.00;67.20
51661;DHT22;37741;49.748;8.490;2023-05-07T09:58:07;19.10;67.20
51661;DHT22;37741;49.748;8.490;2023-05-07T10:00:35;19.10;67.10
51661;DHT22;37741;49.748;8.490;2023-05-07T10:03:01;19.20;67.10
51661;DHT22;37741;49.748;8.490;2023-05-07T10:05:28;19.20;67.00
51661;DHT22;37741;49.748;8.490;2023-05-07T10:07:55;19.20;66.90
51661;DHT22;37741;49.748;8.490;2023-05-07T10:10:22;19.30;67.10
51661;DHT22;37741;49.748;8.490;2023-05-07T10:12:49;19.30;66.90
51661;DHT22;37741;49.748;8.490;2023-05-07T10:15:16;19.30;66.70
51661;DHT22;37741;49.748;8.490;2023-05-07T10:17:42;19.40;66.60
51661;DHT22;37741;49.748;8.490;2023-05-07T10:20:08;19.40;66.50
51661;DHT22;37741;49.748;8.490;2023-05-07T10:22:54;19.50;66.50
51661;DHT22;37741;49.748;8.490;2023-05-07T10:25:25;19.50;66.40
51661;DHT22;37741;49.748;8.490;2023-05-07T10:27:51;19.50;66.30
51661;DHT22;37741;49.748;8.490;2023-05-07T10:30:25;19.50;66.10
51661;DHT22;37741;49.748;8.490;2023-05-07T10:32:59;19.60;66.20
51661;DHT22;37741;49.748;8.490;2023-05-07T10:35:32;19.60;66.10
51661;DHT22;37741;49.748;8.490;2023-05-07T10:37:58;19.60;66.00
51661;DHT22;37741;49.748;8.490;2023-05-07T10:40:24;19.70;66.00
51661;DHT22;37741;49.748;8.490;2023-05-07T10:43:00;19.70;66.00
51661;DHT22;37741;49.748;8.490;2023-05-07T10:45:27;19.70;66.50
51661;DHT22;37741;49.748;8.490;2023-05-07T10:48:13;19.80;65.90
51661;DHT22;37741;49.748;8.490;2023-05-07T10:50:40;19.80;65.70
51661;DHT22;37741;49.748;8.490;2023-05-07T10:58:37;20.00;65.70
51661;DHT22;37741;49.748;8.490;2023-05-07T11:01:07;20.00;65.60
51661;DHT22;37741;49.748;8.490;2023-05-07T11:03:32;20.00;65.40
51661;DHT22;37741;49.748;8.490;2023-05-07T11:06:15;20.10;65.50
51661;DHT22;37741;49.748;8.490;2023-05-07T11:08:57;20.10;65.30
51661;DHT22;37741;49.748;8.490;2023-05-07T11:14:10;20.20;65.10
51661;DHT22;37741;49.748;8.490;2023-05-07T11:16:36;20.30;65.10
51661;DHT22;37741;49.748;8.490;2023-05-07T11:19:03;20.30;64.80
51661;DHT22;37741;49.748;8.490;2023-05-07T11:21:39;20.30;65.20
51661;DHT22;37741;49.748;8.490;2023-05-07T11:24:08;20.40;64.60
51661;DHT22;37741;49.748;8.490;2023-05-07T11:26:49;20.50;64.60
51661;DHT22;37741;49.748;8.490;2023-05-07T11:31:42;20.50;64.40
51661;DHT22;37741;49.748;8.490;2023-05-07T11:34:08;20.60;64.20
51661;DHT22;37741;49.748;8.490;2023-05-07T11:36:34;20.60;64.10
51661;DHT22;37741;49.748;8.490;2023-05-07T11:39:00;20.60;64.10
51661;DHT22;37741;49.748;8.490;2023-05-07T11:41:36;20.70;64.30
51661;DHT22;37741;49.748;8.490;2023-05-07T11:44:02;20.70;64.00
51661;DHT22;37741;49.748;8.490;2023-05-07T11:46:28;20.80;63.70
51661;DHT22;37741;49.748;8.490;2023-05-07T11:48:55;20.80;63.60
51661;DHT22;37741;49.748;8.490;2023-05-07T11:51:23;20.80;63.70
51661;DHT22;37741;49.748;8.490;2023-05-07T11:53:50;20.90;63.40
51661;DHT22;37741;49.748;8.490;2023-05-07T11:56:17;20.90;63.20
51661;DHT22;37741;49.748;8.490;2023-05-07T11:58:44;21.00;63.20
51661;DHT22;37741;49.748;8.490;2023-05-07T12:01:11;21.00;63.30
51661;DHT22;37741;49.748;8.490;2023-05-07T12:03:40;21.10;64.10
51661;DHT22;37741;49.748;8.490;2023-05-07T12:06:09;21.10;63.00
51661;DHT22;37741;49.748;8.490;2023-05-07T12:08:39;21.10;62.90
51661;DHT22;37741;49.748;8.490;2023-05-07T12:11:12;21.20;62.70
51661;DHT22;37741;49.748;8.490;2023-05-07T12:13:38;21.20;62.30
51661;DHT22;37741;49.748;8.490;2023-05-07T12:16:05;21.30;62.30
51661;DHT22;37741;49.748;8.490;2023-05-07T12:18:31;21.30;62.30
51661;DHT22;37741;49.748;8.490;2023-05-07T12:20:57;21.30;61.90
51661;DHT22;37741;49.748;8.490;2023-05-07T12:23:23;21.40;62.00
51661;DHT22;37741;49.748;8.490;2023-05-07T12:25:49;21.50;61.70
51661;DHT22;37741;49.748;8.490;2023-05-07T12:28:16;21.50;62.40
51661;DHT22;37741;49.748;8.490;2023-05-07T12:30:46;21.50;61.40
51661;DHT22;37741;49.748;8.490;2023-05-07T12:33:16;21.60;62.00
51661;DHT22;37741;49.748;8.490;2023-05-07T12:35:42;21.70;61.20
51661;DHT22;37741;49.748;8.490;2023-05-07T12:38:10;21.70;60.90
51661;DHT22;37741;49.748;8.490;2023-05-07T12:40:36;21.80;61.20
51661;DHT22;37741;49.748;8.490;2023-05-07T12:43:02;21.90;60.30
51661;DHT22;37741;49.748;8.490;2023-05-07T12:45:28;22.00;60.00
51661;DHT22;37741;49.748;8.490;2023-05-07T12:47:53;22.10;59.80
51661;DHT22;37741;49.748;8.490;2023-05-07T12:50:19;22.20;60.30
51661;DHT22;37741;49.748;8.490;2023-05-07T12:52:47;22.20;59.50
51661;DHT22;37741;49.748;8.490;2023-05-07T12:55:16;22.30;59.40
51661;DHT22;37741;49.748;8.490;2023-05-07T12:57:45;22.30;59.20
51661;DHT22;37741;49.748;8.490;2023-05-07T13:00:13;22.40;59.40
51661;DHT22;37741;49.748;8.490;2023-05-07T13:02:42;22.40;59.40
51661;DHT22;37741;49.748;8.490;2023-05-07T13:05:09;22.40;59.00
51661;DHT22;37741;49.748;8.490;2023-05-07T13:07:36;22.50;58.90
51661;DHT22;37741;49.748;8.490;2023-05-07T13:10:03;22.50;59.20
51661;DHT22;37741;49.748;8.490;2023-05-07T13:12:28;22.50;59.20
51661;DHT22;37741;49.748;8.490;2023-05-07T13:14:54;22.60;58.80
51661;DHT22;37741;49.748;8.490;2023-05-07T13:17:22;22.60;58.50
51661;DHT22;37741;49.748;8.490;2023-05-07T13:19:47;22.60;58.40
51661;DHT22;37741;49.748;8.490;2023-05-07T13:22:13;22.70;58.30
51661;DHT22;37741;49.748;8.490;2023-05-07T13:24:39;22.70;58.30
51661;DHT22;37741;49.748;8.490;2023-05-07T13:27:08;22.80;58.30
51661;DHT22;37741;49.748;8.490;2023-05-07T13:29:33;22.80;58.60
51661;DHT22;37741;49.748;8.490;2023-05-07T13:31:59;22.80;58.50
51661;DHT22;37741;49.748;8.490;2023-05-07T13:34:25;22.90;57.90
51661;DHT22;37741;49.748;8.490;2023-05-07T13:36:50;22.90;57.60
51661;DHT22;37741;49.748;8.490;2023-05-07T13:39:17;23.00;57.70
51661;DHT22;37741;49.748;8.490;2023-05-07T13:41:43;23.00;57.60
51661;DHT22;37741;49.748;8.490;2023-05-07T13:44:08;23.10;57.70
51661;DHT22;37741;49.748;8.490;2023-05-07T13:46:37;23.10;57.20
51661;DHT22;37741;49.748;8.490;2023-05-07T13:49:03;23.20;57.10
51661;DHT22;37741;49.748;8.490;2023-05-07T13:51:31;23.20;57.40
51661;DHT22;37741;49.748;8.490;2023-05-07T13:53:58;23.20;57.20
51661;DHT22;37741;49.748;8.490;2023-05-07T13:56:27;23.30;57.00
51661;DHT22;37741;49.748;8.490;2023-05-07T13:58:53;23.30;56.90
51661;DHT22;37741;49.748;8.490;2023-05-07T14:01:19;23.30;57.20
51661;DHT22;37741;49.748;8.490;2023-05-07T14:03:44;23.40;57.20
51661;DHT22;37741;49.748;8.490;2023-05-07T14:06:10;23.40;57.80
51661;DHT22;37741;49.748;8.490;2023-05-07T14:08:36;23.40;57.30
51661;DHT22;37741;49.748;8.490;2023-05-07T14:11:01;23.40;57.30
51661;DHT22;37741;49.748;8.490;2023-05-07T14:13:27;23.40;56.40
51661;DHT22;37741;49.748;8.490;2023-05-07T14:15:53;23.40;56.30
51661;DHT22;37741;49.748;8.490;2023-05-07T14:18:18;23.50;57.20
51661;DHT22;37741;49.748;8.490;2023-05-07T14:20:44;23.50;56.90
51661;DHT22;37741;49.748;8.490;2023-05-07T14:23:11;23.50;57.50
51661;DHT22;37741;49.748;8.490;2023-05-07T14:25:37;23.50;57.20
51661;DHT22;37741;49.748;8.490;2023-05-07T14:28:02;23.50;57.10
51661;DHT22;37741;49.748;8.490;2023-05-07T14:30:28;23.50;57.20
51661;DHT22;37741;49.748;8.490;2023-05-07T14:32:54;23.50;56.80
51661;DHT22;37741;49.748;8.490;2023-05-07T14:35:20;23.60;57.10
51661;DHT22;37741;49.748;8.490;2023-05-07T14:37:45;23.60;57.30
51661;DHT22;37741;49.748;8.490;2023-05-07T14:40:11;23.60;57.30
51661;DHT22;37741;49.748;8.490;2023-05-07T14:42:37;23.50;57.30
51661;DHT22;37741;49.748;8.490;2023-05-07T14:45:02;23.60;57.00
51661;DHT22;37741;49.748;8.490;2023-05-07T14:47:28;23.60;57.00
51661;DHT22;37741;49.748;8.490;2023-05-07T14:49:54;23.50;56.50
51661;DHT22;37741;49.748;8.490;2023-05-07T14:52:20;23.60;56.40
51661;DHT22;37741;49.748;8.490;2023-05-07T14:54:45;23.60;57.10
51661;DHT22;37741;49.748;8.490;2023-05-07T14:57:12;23.60;57.00
51661;DHT22;37741;49.748;8.490;2023-05-07T14:59:40;23.60;56.70
51661;DHT22;37741;49.748;8.490;2023-05-07T15:02:06;23.50;56.70
51661;DHT22;37741;49.748;8.490;2023-05-07T15:04:33;23.60;56.80
51661;DHT22;37741;49.748;8.490;2023-05-07T15:06:59;23.60;56.70
51661;DHT22;37741;49.748;8.490;2023-05-07T15:09:25;23.50;56.60
51661;DHT22;37741;49.748;8.490;2023-05-07T15:11:51;23.50;57.00
51661;DHT22;37741;49.748;8.490;2023-05-07T15:14:17;23.50;57.40
51661;DHT22;37741;49.748;8.490;2023-05-07T15:16:42;23.60;56.60
51661;DHT22;37741;49.748;8.490;2023-05-07T15:19:08;23.50;57.00
51661;DHT22;37741;49.748;8.490;2023-05-07T15:21:33;23.50;56.70
51661;DHT22;37741;49.748;8.490;2023-05-07T15:24:01;23.50;56.50
51661;DHT22;37741;49.748;8.490;2023-05-07T15:26:27;23.50;56.80
51661;DHT22;37741;49.748;8.490;2023-05-07T15:28:52;23.50;56.60
51661;DHT22;37741;49.748;8.490;2023-05-07T15:31:18;23.50;56.80
51661;DHT22;37741;49.748;8.490;2023-05-07T15:33:43;23.40;56.90
51661;DHT22;37741;49.748;8.490;2023-05-07T15:36:10;23.40;57.00
51661;DHT22;37741;49.748;8.490;2023-05-07T15:38:36;23.40;57.10